createdAt,value
2017-05-03T00:00:52.751Z,1017.40
2017-05-03T00:01:53.394Z,1017.44
2017-05-03T00:02:54.034Z,1017.44
2017-05-03T00:03:54.671Z,1017.44
2017-05-03T00:04:55.312Z,1017.40
2017-05-03T00:05:55.953Z,1017.35
2017-05-03T00:06:56.597Z,1017.37
2017-05-03T00:07:57.239Z,1017.31
2017-05-03T00:08:58.076Z,1017.33
2017-05-03T00:09:58.719Z,1017.34
2017-05-03T00:10:59.362Z,1017.25
2017-05-03T00:12:00.004Z,1017.29
2017-05-03T00:13:00.642Z,1017.29
2017-05-03T00:14:01.282Z,1017.32
2017-05-03T00:15:01.922Z,1017.20
2017-05-03T00:16:02.565Z,1017.26
2017-05-03T00:17:03.457Z,1017.24
2017-05-03T00:18:04.098Z,1017.22
2017-05-03T00:19:04.742Z,1017.19
2017-05-03T00:20:05.383Z,1017.24
2017-05-03T00:21:06.021Z,1017.21
2017-05-03T00:22:06.661Z,1017.20
2017-05-03T00:23:07.303Z,1017.26
2017-05-03T00:24:07.944Z,1017.22
2017-05-03T00:25:08.585Z,1017.14
2017-05-03T00:26:09.424Z,1017.21
2017-05-03T00:27:10.064Z,1017.21
2017-05-03T00:28:10.708Z,1017.17
2017-05-03T00:29:11.349Z,1017.14
2017-05-03T00:30:11.991Z,1017.20
2017-05-03T00:31:12.627Z,1017.14
2017-05-03T00:32:13.270Z,1017.16
2017-05-03T00:33:13.903Z,1017.18
2017-05-03T00:34:14.742Z,1017.12
2017-05-03T00:35:15.380Z,1017.17
2017-05-03T00:36:16.023Z,1017.11
2017-05-03T00:37:16.659Z,1017.05
2017-05-03T00:38:17.297Z,1017.16
2017-05-03T00:39:17.932Z,1017.11
2017-05-03T00:40:18.575Z,1017.15
2017-05-03T00:41:19.215Z,1017.08
2017-05-03T00:42:20.055Z,1017.13
2017-05-03T00:43:20.691Z,1017.06
2017-05-03T00:44:21.335Z,1017.06
2017-05-03T00:45:21.977Z,1017.06
2017-05-03T00:46:22.620Z,1017.07
2017-05-03T00:47:23.257Z,1016.97
2017-05-03T00:48:23.894Z,1016.96
2017-05-03T00:49:24.535Z,1016.91
2017-05-03T00:50:25.325Z,1016.94
2017-05-03T00:51:25.963Z,1016.95
2017-05-03T00:52:26.603Z,1016.93
2017-05-03T00:53:27.246Z,1016.93
2017-05-03T00:54:27.887Z,1016.87
2017-05-03T00:55:28.528Z,1016.80
2017-05-03T00:56:29.169Z,1016.83
2017-05-03T00:57:29.814Z,1016.77
2017-05-03T00:58:30.455Z,1016.79
2017-05-03T00:59:31.395Z,1016.72
2017-05-03T01:00:32.033Z,1016.67
2017-05-03T01:01:32.677Z,1016.66
2017-05-03T01:02:33.313Z,1016.60
2017-05-03T01:03:33.955Z,1016.63
2017-05-03T01:04:34.597Z,1016.66
2017-05-03T01:05:35.236Z,1016.66
2017-05-03T01:06:35.875Z,1016.65
2017-05-03T01:07:36.861Z,1016.63
2017-05-03T01:08:37.501Z,1016.59
2017-05-03T01:09:38.140Z,1016.57
2017-05-03T01:10:38.782Z,1016.59
2017-05-03T01:11:39.425Z,1016.59
2017-05-03T01:12:40.070Z,1016.53
2017-05-03T01:13:40.707Z,1016.57
2017-05-03T01:14:41.345Z,1016.51
2017-05-03T01:15:42.140Z,1016.52
2017-05-03T01:16:42.777Z,1016.50
2017-05-03T01:17:43.420Z,1016.50
2017-05-03T01:18:44.059Z,1016.38
2017-05-03T01:19:44.700Z,1016.35
2017-05-03T01:20:45.344Z,1016.35
2017-05-03T01:21:45.988Z,1016.40
2017-05-03T01:22:46.628Z,1016.36
2017-05-03T01:23:47.470Z,1016.35
2017-05-03T01:24:48.106Z,1016.36
2017-05-03T01:25:48.747Z,1016.28
2017-05-03T01:26:49.392Z,1016.27
2017-05-03T01:27:50.031Z,1016.43
2017-05-03T01:28:50.670Z,1016.32
2017-05-03T01:29:51.312Z,1016.39
2017-05-03T01:30:51.959Z,1016.26
2017-05-03T01:31:53.116Z,1016.30
2017-05-03T01:32:53.756Z,1016.27
2017-05-03T01:33:54.398Z,1016.30
2017-05-03T01:34:55.040Z,1016.32
2017-05-03T01:35:55.677Z,1016.28
2017-05-03T01:36:56.319Z,1016.23
2017-05-03T01:37:56.959Z,1016.24
2017-05-03T01:38:57.604Z,1016.18
2017-05-03T01:39:58.243Z,1016.20
2017-05-03T01:40:59.180Z,1016.22
2017-05-03T01:41:59.817Z,1016.27
2017-05-03T01:43:00.458Z,1016.14
2017-05-03T01:44:01.098Z,1016.10
2017-05-03T01:45:01.738Z,1016.12
2017-05-03T01:46:02.378Z,1016.14
2017-05-03T01:47:03.017Z,1016.10
2017-05-03T01:48:03.657Z,1016.14
2017-05-03T01:49:04.493Z,1016.14
2017-05-03T01:50:05.135Z,1016.10
2017-05-03T01:51:05.780Z,1016.13
2017-05-03T01:52:06.429Z,1016.10
2017-05-03T01:53:07.061Z,1016.01
2017-05-03T01:54:07.697Z,1016.09
2017-05-03T01:55:08.336Z,1016.03
2017-05-03T01:56:08.980Z,1016.00
2017-05-03T01:57:09.721Z,1016.03
2017-05-03T01:58:10.362Z,1015.97
2017-05-03T01:59:11.004Z,1016.00
2017-05-03T02:00:11.646Z,1015.89
2017-05-03T02:01:12.290Z,1015.88
2017-05-03T02:02:12.930Z,1015.85
2017-05-03T02:03:13.571Z,1015.92
2017-05-03T02:04:14.211Z,1015.88
2017-05-03T02:05:15.101Z,1015.80
2017-05-03T02:06:15.745Z,1015.71
2017-05-03T02:07:16.389Z,1015.75
2017-05-03T02:08:17.023Z,1015.74
2017-05-03T02:09:17.665Z,1015.69
2017-05-03T02:10:18.305Z,1015.74
2017-05-03T02:11:18.945Z,1015.71
2017-05-03T02:12:19.586Z,1015.70
2017-05-03T02:13:20.229Z,1015.72
2017-05-03T02:14:21.168Z,1015.61
2017-05-03T02:15:21.809Z,1015.62
2017-05-03T02:16:22.449Z,1015.66
2017-05-03T02:17:23.089Z,1015.63
2017-05-03T02:18:23.729Z,1015.63
2017-05-03T02:19:24.366Z,1015.59
2017-05-03T02:20:25.008Z,1015.58
2017-05-03T02:21:25.651Z,1015.55
2017-05-03T02:22:26.440Z,1015.56
2017-05-03T02:23:27.077Z,1015.49
2017-05-03T02:24:27.716Z,1015.54
2017-05-03T02:25:28.353Z,1015.47
2017-05-03T02:26:28.993Z,1015.49
2017-05-03T02:27:29.630Z,1015.44
2017-05-03T02:28:30.267Z,1015.42
2017-05-03T02:29:30.907Z,1015.42
2017-05-03T02:30:31.749Z,1015.36
2017-05-03T02:31:32.393Z,1015.39
2017-05-03T02:32:33.033Z,1015.39
2017-05-03T02:33:33.674Z,1015.32
2017-05-03T02:34:34.313Z,1015.32
2017-05-03T02:35:34.954Z,1015.35
2017-05-03T02:36:35.593Z,1015.30
2017-05-03T02:37:36.235Z,1015.31
2017-05-03T02:38:37.076Z,1015.31
2017-05-03T02:39:37.720Z,1015.30
2017-05-03T02:40:38.359Z,1015.33
2017-05-03T02:41:38.998Z,1015.29
2017-05-03T02:42:39.639Z,1015.24
2017-05-03T02:43:40.282Z,1015.31
2017-05-03T02:44:40.924Z,1015.23
2017-05-03T02:45:41.563Z,1015.32
2017-05-03T02:46:42.453Z,1015.22
2017-05-03T02:47:43.093Z,1015.15
2017-05-03T02:48:43.735Z,1015.19
2017-05-03T02:49:44.373Z,1015.17
2017-05-03T02:50:45.014Z,1015.16
2017-05-03T02:51:45.652Z,1015.15
2017-05-03T02:52:46.288Z,1015.15
2017-05-03T02:53:46.933Z,1015.28
2017-05-03T02:54:47.574Z,1015.16
2017-05-03T02:55:48.365Z,1015.18
2017-05-03T02:56:49.005Z,1015.09
2017-05-03T02:57:49.645Z,1015.16
2017-05-03T02:58:50.285Z,1015.10
2017-05-03T02:59:50.922Z,1015.09
2017-05-03T03:00:51.562Z,1015.08
2017-05-03T03:01:52.204Z,1015.11
2017-05-03T03:02:52.843Z,1015.11
2017-05-03T03:03:53.682Z,1015.10
2017-05-03T03:04:54.321Z,1015.06
2017-05-03T03:05:54.962Z,1015.08
2017-05-03T03:06:55.603Z,1015.14
2017-05-03T03:07:56.244Z,1015.12
2017-05-03T03:08:56.889Z,1015.19
2017-05-03T03:09:57.520Z,1015.11
2017-05-03T03:10:58.160Z,1015.12
2017-05-03T03:11:59.101Z,1015.14
2017-05-03T03:12:59.740Z,1015.13
2017-05-03T03:14:00.382Z,1015.08
2017-05-03T03:15:01.023Z,1015.13
2017-05-03T03:16:01.617Z,1015.08
2017-05-03T03:17:02.262Z,1015.06
2017-05-03T03:18:02.900Z,1015.08
2017-05-03T03:19:03.539Z,1015.06
2017-05-03T03:20:04.380Z,1015.11
2017-05-03T03:21:05.016Z,1015.05
2017-05-03T03:22:05.657Z,1015.11
2017-05-03T03:23:06.300Z,1015.05
2017-05-03T03:24:06.940Z,1015.09
2017-05-03T03:25:07.583Z,1015.03
2017-05-03T03:26:08.223Z,1015.12
2017-05-03T03:27:08.866Z,1015.06
2017-05-03T03:28:09.506Z,1015.06
2017-05-03T03:29:10.241Z,1015.14
2017-05-03T03:30:10.883Z,1015.12
2017-05-03T03:31:11.522Z,1015.12
2017-05-03T03:32:12.160Z,1015.07
2017-05-03T03:33:12.801Z,1015.11
2017-05-03T03:34:13.442Z,1015.05
2017-05-03T03:35:14.084Z,1015.09
2017-05-03T03:36:14.719Z,1015.04
2017-05-03T03:37:15.562Z,1015.03
2017-05-03T03:38:16.203Z,1015.05
2017-05-03T03:39:16.844Z,1014.99
2017-05-03T03:40:17.479Z,1015.06
2017-05-03T03:41:18.115Z,1015.06
2017-05-03T03:42:18.756Z,1015.00
2017-05-03T03:43:19.397Z,1015.05
2017-05-03T03:44:20.038Z,1015.01
2017-05-03T03:45:20.877Z,1015.04
2017-05-03T03:46:21.519Z,1014.98
2017-05-03T03:47:22.157Z,1015.01
2017-05-03T03:48:22.796Z,1014.93
2017-05-03T03:49:23.439Z,1015.02
2017-05-03T03:50:24.072Z,1014.98
2017-05-03T03:51:24.712Z,1015.02
2017-05-03T03:52:25.353Z,1014.95
2017-05-03T03:53:26.145Z,1014.91
2017-05-03T03:54:26.785Z,1014.94
2017-05-03T03:55:27.427Z,1014.96
2017-05-03T03:56:28.066Z,1014.91
2017-05-03T03:57:28.705Z,1014.98
2017-05-03T03:58:29.348Z,1014.99
2017-05-03T03:59:29.982Z,1014.98
2017-05-03T04:00:30.624Z,1014.96
2017-05-03T04:01:31.465Z,1014.96
2017-05-03T04:02:32.107Z,1015.00
2017-05-03T04:03:32.746Z,1014.97
2017-05-03T04:04:33.386Z,1014.95
2017-05-03T04:05:34.027Z,1014.97
2017-05-03T04:06:34.667Z,1014.94
2017-05-03T04:07:35.305Z,1015.02
2017-05-03T04:08:35.945Z,1014.99
2017-05-03T04:09:36.577Z,1014.94
2017-05-03T04:10:37.418Z,1015.01
2017-05-03T04:11:38.062Z,1014.92
2017-05-03T04:12:38.705Z,1015.02
2017-05-03T04:13:39.344Z,1014.91
2017-05-03T04:14:39.987Z,1014.98
2017-05-03T04:15:40.626Z,1014.92
2017-05-03T04:16:41.266Z,1014.95
2017-05-03T04:17:41.908Z,1014.89
2017-05-03T04:18:42.749Z,1014.82
2017-05-03T04:19:43.388Z,1014.82
2017-05-03T04:20:44.030Z,1014.87
2017-05-03T04:21:44.670Z,1014.86
2017-05-03T04:22:45.310Z,1014.79
2017-05-03T04:23:45.951Z,1014.86
2017-05-03T04:24:46.593Z,1014.82
2017-05-03T04:25:47.235Z,1014.81
2017-05-03T04:26:48.025Z,1014.83
2017-05-03T04:27:48.666Z,1014.76
2017-05-03T04:28:49.310Z,1014.76
2017-05-03T04:29:49.946Z,1014.81
2017-05-03T04:30:50.587Z,1014.81
2017-05-03T04:31:51.226Z,1014.80
2017-05-03T04:32:51.869Z,1014.82
2017-05-03T04:33:52.507Z,1014.79
2017-05-03T04:34:53.349Z,1014.80
2017-05-03T04:35:53.990Z,1014.77
2017-05-03T04:36:54.631Z,1014.83
2017-05-03T04:37:55.270Z,1014.82
2017-05-03T04:38:55.913Z,1014.81
2017-05-03T04:39:56.551Z,1014.82
2017-05-03T04:40:57.193Z,1014.81
2017-05-03T04:41:57.831Z,1014.73
2017-05-03T04:42:58.471Z,1014.76
2017-05-03T04:43:59.312Z,1014.78
2017-05-03T04:44:59.956Z,1014.79
2017-05-03T04:46:00.596Z,1014.76
2017-05-03T04:47:01.239Z,1014.71
2017-05-03T04:48:01.877Z,1014.74
2017-05-03T04:49:02.518Z,1014.66
2017-05-03T04:50:03.158Z,1014.71
2017-05-03T04:51:03.799Z,1014.69
2017-05-03T04:52:04.585Z,1014.66
2017-05-03T04:53:05.225Z,1014.66
2017-05-03T04:54:05.866Z,1014.59
2017-05-03T04:55:06.509Z,1014.65
2017-05-03T04:56:07.147Z,1014.60
2017-05-03T04:57:07.788Z,1014.63
2017-05-03T04:58:08.428Z,1014.63
2017-05-03T04:59:09.068Z,1014.65
2017-05-03T05:00:09.908Z,1014.60
2017-05-03T05:01:10.547Z,1014.63
2017-05-03T05:02:11.189Z,1014.67
2017-05-03T05:03:11.826Z,1014.71
2017-05-03T05:04:12.472Z,1014.63
2017-05-03T05:05:13.109Z,1014.63
2017-05-03T05:06:13.704Z,1014.62
2017-05-03T05:07:14.342Z,1014.60
2017-05-03T05:08:15.181Z,1014.62
2017-05-03T05:09:15.819Z,1014.62
2017-05-03T05:10:16.461Z,1014.53
2017-05-03T05:11:17.102Z,1014.56
2017-05-03T05:12:17.742Z,1014.57
2017-05-03T05:13:18.386Z,1014.55
2017-05-03T05:14:19.025Z,1014.59
2017-05-03T05:15:19.667Z,1014.63
2017-05-03T05:16:20.606Z,1014.61
2017-05-03T05:17:21.247Z,1014.63
2017-05-03T05:18:21.889Z,1014.56
2017-05-03T05:19:22.523Z,1014.60
2017-05-03T05:20:23.169Z,1014.68
2017-05-03T05:21:23.801Z,1014.63
2017-05-03T05:22:24.443Z,1014.57
2017-05-03T05:23:25.084Z,1014.60
2017-05-03T05:24:25.719Z,1014.60
2017-05-03T05:25:26.612Z,1014.55
2017-05-03T05:26:27.250Z,1014.55
2017-05-03T05:27:27.894Z,1014.57
2017-05-03T05:28:28.536Z,1014.60
2017-05-03T05:29:29.171Z,1014.62
2017-05-03T05:30:29.814Z,1014.60
2017-05-03T05:31:30.451Z,1014.58
2017-05-03T05:32:31.089Z,1014.59
2017-05-03T05:33:32.031Z,1014.55
2017-05-03T05:34:32.670Z,1014.55
2017-05-03T05:35:33.309Z,1014.58
2017-05-03T05:36:33.949Z,1014.52
2017-05-03T05:37:34.590Z,1014.56
2017-05-03T05:38:35.229Z,1014.57
2017-05-03T05:39:35.868Z,1014.52
2017-05-03T05:40:36.510Z,1014.54
2017-05-03T05:41:37.398Z,1014.56
2017-05-03T05:42:38.035Z,1014.56
2017-05-03T05:43:38.677Z,1014.55
2017-05-03T05:44:39.316Z,1014.56
2017-05-03T05:45:39.958Z,1014.53
2017-05-03T05:46:40.547Z,1014.59
2017-05-03T05:47:41.188Z,1014.50
2017-05-03T05:48:41.829Z,1014.60
2017-05-03T05:49:42.667Z,1014.55
2017-05-03T05:50:43.309Z,1014.58
2017-05-03T05:51:43.949Z,1014.66
2017-05-03T05:52:44.586Z,1014.67
2017-05-03T05:53:45.224Z,1014.66
2017-05-03T05:54:45.863Z,1014.64
2017-05-03T05:55:46.505Z,1014.66
2017-05-03T05:56:47.148Z,1014.64
2017-05-03T05:57:47.788Z,1014.61
2017-05-03T05:58:48.579Z,1014.63
2017-05-03T05:59:49.221Z,1014.61
2017-05-03T06:00:49.858Z,1014.71
2017-05-03T06:01:50.555Z,1014.68
2017-05-03T06:02:51.194Z,1014.75
2017-05-03T06:03:51.836Z,1014.77
2017-05-03T06:04:52.469Z,1014.71
2017-05-03T06:05:53.109Z,1014.71
2017-05-03T06:06:53.953Z,1014.72
2017-05-03T06:07:54.596Z,1014.75
2017-05-03T06:08:55.231Z,1014.79
2017-05-03T06:09:55.872Z,1014.75
2017-05-03T06:10:56.511Z,1014.76
2017-05-03T06:11:57.152Z,1014.72
2017-05-03T06:12:57.795Z,1014.72
2017-05-03T06:13:58.439Z,1014.64
2017-05-03T06:14:59.229Z,1014.69
2017-05-03T06:15:59.869Z,1014.75
2017-05-03T06:17:00.510Z,1014.75
2017-05-03T06:18:01.151Z,1014.76
2017-05-03T06:19:01.789Z,1014.67
2017-05-03T06:20:02.423Z,1014.75
2017-05-03T06:21:03.059Z,1014.71
2017-05-03T06:22:03.700Z,1014.73
2017-05-03T06:23:04.545Z,1014.65
2017-05-03T06:24:05.184Z,1014.74
2017-05-03T06:25:05.819Z,1014.76
2017-05-03T06:26:06.459Z,1014.68
2017-05-03T06:27:07.096Z,1014.72
2017-05-03T06:28:07.737Z,1014.83
2017-05-03T06:29:08.376Z,1014.77
2017-05-03T06:30:09.016Z,1014.84
2017-05-03T06:31:09.806Z,1014.82
2017-05-03T06:32:10.448Z,1014.90
2017-05-03T06:33:11.086Z,1014.82
2017-05-03T06:34:11.727Z,1014.79
2017-05-03T06:35:12.364Z,1014.85
2017-05-03T06:36:13.006Z,1014.78
2017-05-03T06:37:13.648Z,1014.85
2017-05-03T06:38:14.289Z,1014.87
2017-05-03T06:39:14.927Z,1014.86
2017-05-03T06:40:15.917Z,1014.79
2017-05-03T06:41:16.557Z,1014.87
2017-05-03T06:42:20.226Z,1014.86
2017-05-03T06:43:21.169Z,1014.84
2017-05-03T06:44:21.806Z,1014.90
2017-05-03T06:45:22.448Z,1014.80
2017-05-03T06:46:23.088Z,1014.80
2017-05-03T06:47:23.727Z,1014.76
2017-05-03T06:48:24.368Z,1014.75
2017-05-03T06:49:25.009Z,1014.76
2017-05-03T06:50:25.649Z,1014.67
2017-05-03T06:51:26.690Z,1014.76
2017-05-03T06:52:27.329Z,1014.79
2017-05-03T06:53:27.971Z,1014.72
2017-05-03T06:54:28.561Z,1014.80
2017-05-03T06:55:29.200Z,1014.75
2017-05-03T06:56:29.842Z,1014.82
2017-05-03T06:57:30.481Z,1014.81
2017-05-03T06:58:31.121Z,1014.76
2017-05-03T06:59:31.962Z,1014.71
2017-05-03T07:00:32.602Z,1014.80
2017-05-03T07:01:33.243Z,1014.77
2017-05-03T07:02:33.883Z,1014.83
2017-05-03T07:03:34.520Z,1014.81
2017-05-03T07:04:35.156Z,1014.74
2017-05-03T07:05:35.798Z,1014.78
2017-05-03T07:06:36.384Z,1014.86
2017-05-03T07:07:37.224Z,1014.80
2017-05-03T07:08:37.865Z,1014.82
2017-05-03T07:09:38.504Z,1014.77
2017-05-03T07:10:39.139Z,1014.76
2017-05-03T07:11:39.779Z,1014.78
2017-05-03T07:12:40.423Z,1014.75
2017-05-03T07:13:41.068Z,1014.77
2017-05-03T07:14:41.700Z,1014.83
2017-05-03T07:15:42.542Z,1014.80
2017-05-03T07:16:43.179Z,1014.81
2017-05-03T07:17:43.820Z,1014.82
2017-05-03T07:18:44.456Z,1014.75
2017-05-03T07:19:45.098Z,1014.69
2017-05-03T07:20:45.742Z,1014.80
2017-05-03T07:21:46.373Z,1014.79
2017-05-03T07:22:47.020Z,1014.76
2017-05-03T07:23:47.657Z,1014.82
2017-05-03T07:24:48.450Z,1014.78
2017-05-03T07:25:49.089Z,1014.75
2017-05-03T07:26:49.730Z,1014.75
2017-05-03T07:27:50.374Z,1014.68
2017-05-03T07:28:51.015Z,1014.71
2017-05-03T07:29:51.653Z,1014.76
2017-05-03T07:30:52.293Z,1014.78
2017-05-03T07:31:52.933Z,1014.73
2017-05-03T07:32:53.773Z,1014.73
2017-05-03T07:33:54.413Z,1014.75
2017-05-03T07:34:55.049Z,1014.71
2017-05-03T07:35:55.688Z,1014.66
2017-05-03T07:36:56.330Z,1014.69
2017-05-03T07:37:56.971Z,1014.66
2017-05-03T07:38:57.615Z,1014.71
2017-05-03T07:39:58.249Z,1014.64
2017-05-03T07:40:59.091Z,1014.67
2017-05-03T07:41:59.733Z,1014.68
2017-05-03T07:43:00.375Z,1014.58
2017-05-03T07:44:01.010Z,1014.59
2017-05-03T07:45:01.650Z,1014.63
2017-05-03T07:46:02.290Z,1014.54
2017-05-03T07:47:02.925Z,1014.59
2017-05-03T07:48:03.564Z,1014.57
2017-05-03T07:49:04.405Z,1014.63
2017-05-03T07:50:05.040Z,1014.58
2017-05-03T07:51:05.681Z,1014.59
2017-05-03T07:52:06.325Z,1014.64
2017-05-03T07:53:06.968Z,1014.64
2017-05-03T07:54:07.607Z,1014.68
2017-05-03T07:55:08.246Z,1014.62
2017-05-03T07:56:08.883Z,1014.59
2017-05-03T07:57:09.574Z,1014.61
2017-05-03T07:58:10.214Z,1014.68
2017-05-03T07:59:10.857Z,1014.60
2017-05-03T08:00:11.498Z,1014.64
2017-05-03T08:01:12.134Z,1014.64
2017-05-03T08:02:12.773Z,1014.62
2017-05-03T08:03:13.415Z,1014.63
2017-05-03T08:04:14.054Z,1014.55
2017-05-03T08:05:15.245Z,1014.61
2017-05-03T08:06:16.084Z,1014.65
2017-05-03T08:07:16.726Z,1014.58
2017-05-03T08:08:17.368Z,1014.64
2017-05-03T08:09:18.009Z,1014.54
2017-05-03T08:10:18.652Z,1014.61
2017-05-03T08:11:19.294Z,1014.56
2017-05-03T08:12:19.928Z,1014.58
2017-05-03T08:13:20.566Z,1014.57
2017-05-03T08:14:21.408Z,1014.55
2017-05-03T08:15:22.050Z,1014.50
2017-05-03T08:16:22.689Z,1014.46
2017-05-03T08:17:23.326Z,1014.46
2017-05-03T08:18:23.967Z,1014.53
2017-05-03T08:19:24.607Z,1014.56
2017-05-03T08:20:25.245Z,1014.54
2017-05-03T08:21:25.882Z,1014.60
2017-05-03T08:22:26.722Z,1014.59
2017-05-03T08:23:27.362Z,1014.54
2017-05-03T08:24:28.008Z,1014.55
2017-05-03T08:25:28.647Z,1014.56
2017-05-03T08:26:29.288Z,1014.53
2017-05-03T08:27:29.929Z,1014.51
2017-05-03T08:28:30.569Z,1014.54
2017-05-03T08:29:31.212Z,1014.50
2017-05-03T08:30:32.004Z,1014.51
2017-05-03T08:31:32.644Z,1014.58
2017-05-03T08:32:33.284Z,1014.45
2017-05-03T08:33:33.929Z,1014.44
2017-05-03T08:34:34.568Z,1014.47
2017-05-03T08:35:35.209Z,1014.40
2017-05-03T08:36:35.851Z,1014.45
2017-05-03T08:37:36.494Z,1014.40
2017-05-03T08:38:37.133Z,1014.39
2017-05-03T08:39:38.122Z,1014.42
2017-05-03T08:40:38.759Z,1014.40
2017-05-03T08:41:39.398Z,1014.42
2017-05-03T08:42:40.038Z,1014.46
2017-05-03T08:43:40.679Z,1014.42
2017-05-03T08:44:41.324Z,1014.38
2017-05-03T08:45:41.965Z,1014.40
2017-05-03T08:46:42.601Z,1014.44
2017-05-03T08:47:43.391Z,1014.45
2017-05-03T08:48:44.029Z,1014.37
2017-05-03T08:49:44.666Z,1014.42
2017-05-03T08:50:45.305Z,1014.44
2017-05-03T08:51:45.948Z,1014.38
2017-05-03T08:52:46.589Z,1014.41
2017-05-03T08:53:47.233Z,1014.40
2017-05-03T08:54:47.822Z,1014.41
2017-05-03T08:55:48.667Z,1014.40
2017-05-03T08:56:49.311Z,1014.33
2017-05-03T08:57:49.953Z,1014.36
2017-05-03T08:58:50.596Z,1014.36
2017-05-03T08:59:51.238Z,1014.39
2017-05-03T09:00:51.874Z,1014.32
2017-05-03T09:01:52.516Z,1014.32
2017-05-03T09:02:53.158Z,1014.32
2017-05-03T09:03:54.101Z,1014.26
2017-05-03T09:04:54.750Z,1014.31
2017-05-03T09:05:55.389Z,1014.24
2017-05-03T09:06:56.033Z,1014.23
2017-05-03T09:07:56.675Z,1014.22
2017-05-03T09:08:57.317Z,1014.22
2017-05-03T09:09:57.958Z,1014.19
2017-05-03T09:10:58.599Z,1014.19
2017-05-03T09:11:59.392Z,1014.18
2017-05-03T09:13:00.033Z,1014.20
2017-05-03T09:14:00.671Z,1014.26
2017-05-03T09:15:01.308Z,1014.22
2017-05-03T09:16:01.947Z,1014.24
2017-05-03T09:17:02.539Z,1014.24
2017-05-03T09:18:03.180Z,1014.19
2017-05-03T09:19:03.819Z,1014.19
2017-05-03T09:20:04.462Z,1014.31
2017-05-03T09:21:05.302Z,1014.19
2017-05-03T09:22:05.947Z,1014.24
2017-05-03T09:23:06.587Z,1014.14
2017-05-03T09:24:07.227Z,1014.16
2017-05-03T09:25:07.866Z,1014.17
2017-05-03T09:26:08.509Z,1014.18
2017-05-03T09:27:09.149Z,1014.17
2017-05-03T09:28:09.792Z,1014.14
2017-05-03T09:29:10.636Z,1014.19
2017-05-03T09:30:11.279Z,1014.11
2017-05-03T09:31:11.922Z,1014.17
2017-05-03T09:32:12.558Z,1014.16
2017-05-03T09:33:13.231Z,1014.13
2017-05-03T09:34:13.839Z,1014.13
2017-05-03T09:35:14.479Z,1014.18
2017-05-03T09:36:15.116Z,1014.12
2017-05-03T09:37:15.957Z,1014.10
2017-05-03T09:38:16.596Z,1014.12
2017-05-03T09:39:17.238Z,1014.07
2017-05-03T09:40:17.882Z,1014.15
2017-05-03T09:41:18.843Z,1014.11
2017-05-03T09:42:19.481Z,1014.09
2017-05-03T09:43:20.121Z,1014.09
2017-05-03T09:44:20.767Z,1014.12
2017-05-03T09:45:21.706Z,1014.16
2017-05-03T09:46:22.346Z,1014.15
2017-05-03T09:47:22.988Z,1014.17
2017-05-03T09:48:23.633Z,1014.18
2017-05-03T09:49:24.276Z,1014.12
2017-05-03T09:50:24.916Z,1014.13
2017-05-03T09:51:25.557Z,1014.11
2017-05-03T09:52:26.201Z,1014.15
2017-05-03T09:53:26.845Z,1014.21
2017-05-03T09:54:27.639Z,1014.13
2017-05-03T09:55:28.337Z,1014.14
2017-05-03T09:56:28.981Z,1014.21
2017-05-03T09:57:29.623Z,1014.23
2017-05-03T09:58:30.265Z,1014.17
2017-05-03T09:59:30.908Z,1014.23
2017-05-03T10:00:31.549Z,1014.28
2017-05-03T10:01:32.186Z,1014.15
2017-05-03T10:02:33.030Z,1014.16
2017-05-03T10:03:33.669Z,1014.23
2017-05-03T10:04:34.307Z,1014.21
2017-05-03T10:05:34.947Z,1014.25
2017-05-03T10:06:35.591Z,1014.26
2017-05-03T10:07:36.232Z,1014.17
2017-05-03T10:08:36.877Z,1014.22
2017-05-03T10:09:37.519Z,1014.18
2017-05-03T10:10:38.357Z,1014.21
2017-05-03T10:11:38.999Z,1014.14
2017-05-03T10:12:39.642Z,1014.13
2017-05-03T10:13:40.281Z,1014.19
2017-05-03T10:14:40.922Z,1014.14
2017-05-03T10:15:41.559Z,1014.05
2017-05-03T10:16:42.197Z,1014.16
2017-05-03T10:17:42.837Z,1014.08
2017-05-03T10:18:43.631Z,1014.09
2017-05-03T10:19:44.274Z,1014.11
2017-05-03T10:20:44.916Z,1014.05
2017-05-03T10:21:45.558Z,1014.07
2017-05-03T10:22:46.199Z,1014.03
2017-05-03T10:23:46.841Z,1014.05
2017-05-03T10:24:47.485Z,1014.03
2017-05-03T10:25:48.125Z,1013.98
2017-05-03T10:26:48.966Z,1014.04
2017-05-03T10:27:49.610Z,1014.06
2017-05-03T10:28:50.252Z,1014.04
2017-05-03T10:29:50.895Z,1013.98
2017-05-03T10:30:51.539Z,1013.90
2017-05-03T10:31:52.178Z,1014.04
2017-05-03T10:32:52.820Z,1014.03
2017-05-03T10:33:53.462Z,1014.00
2017-05-03T10:34:54.103Z,1013.91
2017-05-03T10:35:54.895Z,1014.00
2017-05-03T10:36:55.540Z,1014.02
2017-05-03T10:37:56.181Z,1013.94
2017-05-03T10:38:56.825Z,1013.92
2017-05-03T10:39:57.466Z,1013.96
2017-05-03T10:40:58.113Z,1013.96
2017-05-03T10:41:58.754Z,1013.87
2017-05-03T10:42:59.400Z,1013.96
2017-05-03T10:44:00.241Z,1013.90
2017-05-03T10:45:00.883Z,1013.86
2017-05-03T10:46:01.526Z,1013.86
2017-05-03T10:47:02.165Z,1013.86
2017-05-03T10:48:02.811Z,1013.88
2017-05-03T10:49:03.446Z,1013.88
2017-05-03T10:50:04.087Z,1013.82
2017-05-03T10:51:04.725Z,1013.82
2017-05-03T10:52:05.563Z,1013.77
2017-05-03T10:53:06.208Z,1013.82
2017-05-03T10:54:06.852Z,1013.76
2017-05-03T10:55:07.492Z,1013.80
2017-05-03T10:56:08.134Z,1013.73
2017-05-03T10:57:08.773Z,1013.72
2017-05-03T10:58:09.412Z,1013.67
2017-05-03T10:59:10.055Z,1013.61
2017-05-03T11:00:10.898Z,1013.65
2017-05-03T11:01:11.537Z,1013.66
2017-05-03T11:02:12.175Z,1013.59
2017-05-03T11:03:12.818Z,1013.69
2017-05-03T11:04:13.457Z,1013.69
2017-05-03T11:05:14.094Z,1013.62
2017-05-03T11:06:14.736Z,1013.62
2017-05-03T11:07:15.375Z,1013.59
2017-05-03T11:08:16.014Z,1013.53
2017-05-03T11:09:16.857Z,1013.58
2017-05-03T11:10:17.499Z,1013.51
2017-05-03T11:11:18.140Z,1013.54
2017-05-03T11:12:18.787Z,1013.55
2017-05-03T11:13:19.430Z,1013.52
2017-05-03T11:14:20.076Z,1013.51
2017-05-03T11:15:20.719Z,1013.49
2017-05-03T11:16:21.361Z,1013.53
2017-05-03T11:17:22.152Z,1013.53
2017-05-03T11:18:22.796Z,1013.52
2017-05-03T11:19:23.442Z,1013.56
2017-05-03T11:20:24.085Z,1013.57
2017-05-03T11:21:24.728Z,1013.59
2017-05-03T11:22:25.369Z,1013.58
2017-05-03T11:23:26.010Z,1013.48
2017-05-03T11:24:26.653Z,1013.47
2017-05-03T11:25:27.494Z,1013.51
2017-05-03T11:26:28.155Z,1013.49
2017-05-03T11:27:28.777Z,1013.43
2017-05-03T11:28:29.417Z,1013.49
2017-05-03T11:29:30.057Z,1013.43
2017-05-03T11:30:30.698Z,1013.43
2017-05-03T11:31:31.360Z,1013.45
2017-05-03T11:32:31.983Z,1013.41
2017-05-03T11:33:33.074Z,1013.45
2017-05-03T11:34:33.717Z,1013.46
2017-05-03T11:35:34.364Z,1013.45
2017-05-03T11:36:35.007Z,1013.37
2017-05-03T11:37:35.644Z,1013.41
2017-05-03T11:38:36.282Z,1013.35
2017-05-03T11:39:36.924Z,1013.37
2017-05-03T11:40:37.563Z,1013.30
2017-05-03T11:41:38.457Z,1013.30
2017-05-03T11:42:39.094Z,1013.30
2017-05-03T11:43:39.736Z,1013.31
2017-05-03T11:44:40.377Z,1013.24
2017-05-03T11:45:41.015Z,1013.25
2017-05-03T11:46:41.659Z,1013.27
2017-05-03T11:47:42.303Z,1013.32
2017-05-03T11:48:42.945Z,1013.25
2017-05-03T11:49:43.586Z,1013.29
2017-05-03T11:50:44.628Z,1013.18
2017-05-03T11:51:45.268Z,1013.20
2017-05-03T11:52:45.903Z,1013.24
2017-05-03T11:53:46.547Z,1013.19
2017-05-03T11:54:47.189Z,1013.27
2017-05-03T11:55:47.833Z,1013.23
2017-05-03T11:56:48.477Z,1013.30
2017-05-03T11:57:49.123Z,1013.27
2017-05-03T11:58:49.965Z,1013.39
2017-05-03T11:59:50.611Z,1013.35
2017-05-03T12:00:51.255Z,1013.34
2017-05-03T12:01:51.896Z,1013.36
2017-05-03T12:02:52.542Z,1013.33
2017-05-03T12:03:53.184Z,1013.34
2017-05-03T12:04:53.824Z,1013.34
2017-05-03T12:05:54.468Z,1013.35
2017-05-03T12:06:55.354Z,1013.42
2017-05-03T12:07:55.997Z,1013.38
2017-05-03T12:08:56.636Z,1013.36
2017-05-03T12:09:57.283Z,1013.33
2017-05-03T12:10:57.933Z,1013.42
2017-05-03T12:11:58.567Z,1013.40
2017-05-03T12:12:59.205Z,1013.40
2017-05-03T12:13:59.845Z,1013.30